createdAt,value
2019-02-10T00:01:44.039Z,5.47
2019-02-10T00:04:13.323Z,5.67
2019-02-10T00:06:42.616Z,6.90
2019-02-10T00:09:11.882Z,8.23
2019-02-10T00:11:41.175Z,7.00
2019-02-10T00:14:11.681Z,6.20
2019-02-10T00:16:40.973Z,7.40
2019-02-10T00:19:10.245Z,6.90
2019-02-10T00:21:39.569Z,5.77
2019-02-10T00:24:08.843Z,6.70
2019-02-10T00:26:38.146Z,7.73
2019-02-10T00:29:07.424Z,7.93
2019-02-10T00:31:36.707Z,8.03
2019-02-10T00:34:05.981Z,8.17
2019-02-10T00:36:35.281Z,10.40
2019-02-10T00:39:07.878Z,10.13
2019-02-10T00:41:37.181Z,9.23
2019-02-10T00:44:06.458Z,13.30
2019-02-10T00:46:35.751Z,11.00
2019-02-10T00:49:05.026Z,10.60
2019-02-10T00:51:34.321Z,7.90
2019-02-10T00:54:03.593Z,10.40
2019-02-10T00:56:32.901Z,13.47
2019-02-10T00:59:02.199Z,11.20
2019-02-10T01:01:31.477Z,11.90
2019-02-10T01:04:00.763Z,9.77
2019-02-10T01:06:30.046Z,7.27
2019-02-10T01:08:59.377Z,5.53
2019-02-10T01:11:28.663Z,7.37
2019-02-10T01:13:57.961Z,10.27
2019-02-10T01:16:27.255Z,11.70
2019-02-10T01:18:59.627Z,11.17
2019-02-10T01:21:28.920Z,10.83
2019-02-10T01:23:58.222Z,11.37
2019-02-10T01:26:27.511Z,10.37
2019-02-10T01:29:00.387Z,11.27
2019-02-10T01:31:29.672Z,7.77
2019-02-10T01:33:58.958Z,9.23
2019-02-10T01:36:28.238Z,9.77
2019-02-10T01:38:57.645Z,8.97
2019-02-10T01:41:26.920Z,14.27
2019-02-10T01:43:57.187Z,14.17
2019-02-10T01:46:26.466Z,13.33
2019-02-10T01:48:55.762Z,13.00
2019-02-10T01:51:25.038Z,9.20
2019-02-10T01:53:54.400Z,8.43
2019-02-10T01:56:23.716Z,8.30
2019-02-10T01:58:53.005Z,8.73
2019-02-10T02:01:22.337Z,8.33
2019-02-10T02:03:51.617Z,8.40
2019-02-10T02:06:20.951Z,11.63
2019-02-10T02:08:50.312Z,13.20
2019-02-10T02:11:19.590Z,20.40
2019-02-10T02:13:49.156Z,21.50
2019-02-10T02:16:18.449Z,14.93
2019-02-10T02:18:47.766Z,9.53
2019-02-10T02:21:17.050Z,7.43
2019-02-10T02:23:46.391Z,6.23
2019-02-10T02:26:21.724Z,6.23
2019-02-10T02:28:51.011Z,5.90
2019-02-10T02:31:20.293Z,9.90
2019-02-10T02:33:49.607Z,8.47
2019-02-10T02:36:18.942Z,7.43
2019-02-10T02:38:48.228Z,6.97
2019-02-10T02:41:17.527Z,5.97
2019-02-10T02:43:46.799Z,5.93
2019-02-10T02:46:17.050Z,5.73
2019-02-10T02:48:46.326Z,5.83
2019-02-10T02:51:15.625Z,6.37
2019-02-10T02:53:44.907Z,6.00
2019-02-10T02:56:14.208Z,6.70
2019-02-10T02:58:43.483Z,6.33
2019-02-10T03:01:13.122Z,6.20
2019-02-10T03:03:42.398Z,6.13
2019-02-10T03:06:11.763Z,40.23
2019-02-10T03:08:41.035Z,10.30
2019-02-10T03:11:10.335Z,7.00
2019-02-10T03:13:39.612Z,7.77
2019-02-10T03:16:08.959Z,6.70
2019-02-10T03:18:38.275Z,6.80
2019-02-10T03:21:07.568Z,6.90
2019-02-10T03:23:36.837Z,11.33
2019-02-10T03:26:06.138Z,9.10
2019-02-10T03:28:54.752Z,7.87
2019-02-10T03:31:25.044Z,12.40
2019-02-10T03:33:56.168Z,6.97
2019-02-10T03:36:25.458Z,7.03
2019-02-10T03:39:14.088Z,8.47
2019-02-10T03:41:43.363Z,8.97
2019-02-10T03:44:12.716Z,7.87
2019-02-10T03:46:42.013Z,7.57
2019-02-10T03:49:11.293Z,7.17
2019-02-10T03:51:40.636Z,6.93
2019-02-10T03:54:09.938Z,5.47
2019-02-10T03:56:39.272Z,5.03
2019-02-10T03:59:08.575Z,4.67
2019-02-10T04:01:37.945Z,4.07
2019-02-10T04:04:27.541Z,3.23
2019-02-10T04:06:56.814Z,3.53
2019-02-10T04:09:26.102Z,3.20
2019-02-10T04:11:55.367Z,3.30
2019-02-10T04:14:24.650Z,2.90
2019-02-10T04:16:53.927Z,2.90
2019-02-10T04:19:23.226Z,2.77
2019-02-10T04:21:52.506Z,2.37
2019-02-10T04:24:22.847Z,2.80
2019-02-10T04:26:52.249Z,2.63
2019-02-10T04:29:21.539Z,2.80
2019-02-10T04:31:50.811Z,2.80
2019-02-10T04:34:20.122Z,3.10
2019-02-10T04:36:49.391Z,2.60
2019-02-10T04:39:18.738Z,2.87
2019-02-10T04:41:48.011Z,2.70
2019-02-10T04:44:17.410Z,3.03
2019-02-10T04:46:46.822Z,2.50
2019-02-10T04:49:16.247Z,2.43
2019-02-10T04:51:45.562Z,2.60
2019-02-10T04:54:14.851Z,2.50
2019-02-10T04:56:44.416Z,2.40
2019-02-10T04:59:13.704Z,2.37
2019-02-10T05:01:42.973Z,2.50
2019-02-10T05:04:12.256Z,2.53
2019-02-10T05:06:41.542Z,2.77
2019-02-10T05:09:10.832Z,3.10
2019-02-10T05:11:47.006Z,3.07
2019-02-10T05:14:16.295Z,3.23
2019-02-10T05:16:46.648Z,2.60
2019-02-10T05:19:15.939Z,2.43
2019-02-10T05:21:45.384Z,2.30
2019-02-10T05:24:14.823Z,2.60
2019-02-10T05:26:44.793Z,2.23
2019-02-10T05:29:14.548Z,2.23
2019-02-10T05:31:44.062Z,2.37
2019-02-10T05:34:14.953Z,2.10
2019-02-10T05:36:44.252Z,2.30
2019-02-10T05:39:13.562Z,2.00
2019-02-10T05:41:42.900Z,1.77
2019-02-10T05:44:12.210Z,2.03
2019-02-10T05:46:41.487Z,2.17
2019-02-10T05:49:10.770Z,2.10
2019-02-10T05:51:40.302Z,1.60
2019-02-10T05:54:09.623Z,2.10
2019-02-10T05:56:38.981Z,2.07
2019-02-10T05:59:08.287Z,3.30
2019-02-10T06:02:02.667Z,5.30
2019-02-10T06:04:43.350Z,4.93
2019-02-10T06:07:16.980Z,6.37
2019-02-10T06:09:46.310Z,5.80
2019-02-10T06:12:15.602Z,5.93
2019-02-10T06:14:44.926Z,5.83
2019-02-10T06:20:23.770Z,6.47
2019-02-10T06:22:53.081Z,5.27
2019-02-10T06:25:22.468Z,4.33
2019-02-10T06:27:51.751Z,4.87
2019-02-10T06:30:21.104Z,5.30
2019-02-10T06:32:50.654Z,7.13
2019-02-10T06:35:19.959Z,5.77
2019-02-10T06:37:49.254Z,3.70
2019-02-10T06:40:18.545Z,2.90
2019-02-10T06:42:47.860Z,2.30
2019-02-10T06:45:17.211Z,2.77
2019-02-10T06:47:46.482Z,2.10
2019-02-10T06:50:15.779Z,1.40
2019-02-10T06:52:45.056Z,1.60
2019-02-10T06:55:14.348Z,2.10
2019-02-10T06:57:43.765Z,3.37
2019-02-10T07:00:20.392Z,2.13
2019-02-10T07:03:31.449Z,1.97
2019-02-10T07:06:01.113Z,2.20
2019-02-10T07:08:30.933Z,2.20
2019-02-10T07:11:00.355Z,3.33
2019-02-10T07:13:35.346Z,2.17
2019-02-10T07:16:37.580Z,2.60
2019-02-10T07:19:42.275Z,1.70
2019-02-10T07:22:34.333Z,1.50
2019-02-10T07:25:09.873Z,1.70
2019-02-10T07:27:39.186Z,1.60
2019-02-10T07:30:11.633Z,1.50
2019-02-10T07:32:44.062Z,1.47
2019-02-10T07:35:36.171Z,1.17
2019-02-10T07:38:13.758Z,2.60
2019-02-10T07:41:04.190Z,1.40
2019-02-10T07:43:59.895Z,1.50
2019-02-10T07:46:35.011Z,3.27
2019-02-10T07:49:28.437Z,3.93
2019-02-10T07:52:00.840Z,3.00
2019-02-10T07:54:51.214Z,4.20
2019-02-10T07:57:52.716Z,3.20
2019-02-10T08:00:34.862Z,3.03
2019-02-10T08:03:16.139Z,4.50
2019-02-10T08:05:51.175Z,2.30
2019-02-10T08:08:46.192Z,1.70
2019-02-10T08:11:33.791Z,2.37
2019-02-10T08:14:17.985Z,1.80
2019-02-10T08:17:05.397Z,2.13
2019-02-10T08:19:37.762Z,3.30
2019-02-10T08:22:31.281Z,2.27
2019-02-10T08:25:18.566Z,3.67
2019-02-10T08:27:51.050Z,44.03
2019-02-10T08:30:41.649Z,23.50
2019-02-10T08:33:16.588Z,23.00
2019-02-10T08:36:05.542Z,12.63
2019-02-10T08:38:54.381Z,10.20
2019-02-10T08:41:46.093Z,4.50
2019-02-10T08:44:18.836Z,2.53
2019-02-10T08:46:52.022Z,2.60
2019-02-10T08:49:53.029Z,5.10
2019-02-10T08:52:35.439Z,3.33
2019-02-10T08:55:07.242Z,10.10
2019-02-10T08:57:36.535Z,22.63
2019-02-10T09:00:09.068Z,7.20
2019-02-10T09:02:38.372Z,18.43
2019-02-10T09:05:08.296Z,6.23
2019-02-10T09:07:37.591Z,5.67
2019-02-10T09:10:26.211Z,10.30
2019-02-10T09:12:55.531Z,4.33
2019-02-10T09:15:24.812Z,2.10
2019-02-10T09:17:54.100Z,1.50
2019-02-10T09:20:23.564Z,4.20
2019-02-10T09:22:52.939Z,2.30
2019-02-10T09:25:24.294Z,3.43
2019-02-10T09:27:53.770Z,5.00
2019-02-10T09:30:23.046Z,3.90
2019-02-10T09:32:52.362Z,3.30
2019-02-10T09:35:21.649Z,2.17
2019-02-10T09:37:51.010Z,2.20
2019-02-10T09:40:20.294Z,6.43
2019-02-10T09:42:49.605Z,4.43
2019-02-10T09:45:19.070Z,8.13
2019-02-10T09:47:48.487Z,9.03
2019-02-10T09:50:19.232Z,8.70
2019-02-10T09:52:48.935Z,4.57
2019-02-10T09:55:18.230Z,4.37
2019-02-10T09:57:47.658Z,3.23
2019-02-10T10:00:16.958Z,3.33
2019-02-10T10:02:46.266Z,3.77
2019-02-10T10:05:15.643Z,7.13
2019-02-10T10:07:44.911Z,5.63
2019-02-10T10:10:20.457Z,5.07
2019-02-10T10:12:49.733Z,4.57
2019-02-10T10:15:19.302Z,12.30
2019-02-10T10:17:48.584Z,5.50
2019-02-10T10:20:18.897Z,4.27
2019-02-10T10:22:48.189Z,6.80
2019-02-10T10:25:17.490Z,4.67
2019-02-10T10:27:46.939Z,3.27
2019-02-10T10:30:18.614Z,6.07
2019-02-10T10:32:47.898Z,4.37
2019-02-10T10:35:17.198Z,4.00
2019-02-10T10:37:46.479Z,3.20
2019-02-10T10:40:15.775Z,15.17
2019-02-10T10:42:45.065Z,10.73
2019-02-10T10:45:15.284Z,3.17
2019-02-10T10:47:44.591Z,3.27
2019-02-10T10:50:14.445Z,2.70
2019-02-10T10:52:43.766Z,7.23
2019-02-10T10:55:13.544Z,5.63
2019-02-10T10:57:43.805Z,3.70
2019-02-10T11:00:15.250Z,4.17
2019-02-10T11:02:44.677Z,3.33
2019-02-10T11:05:14.905Z,3.93
2019-02-10T11:07:45.350Z,4.73
2019-02-10T11:10:14.653Z,3.60
2019-02-10T11:12:43.959Z,5.07
2019-02-10T11:15:15.107Z,2.87
2019-02-10T11:17:44.444Z,2.87
2019-02-10T11:20:13.994Z,2.80
2019-02-10T11:22:43.352Z,2.27
2019-02-10T11:25:13.016Z,7.87
2019-02-10T11:27:42.855Z,4.03
2019-02-10T11:30:14.457Z,4.27
2019-02-10T11:32:43.738Z,3.50
2019-02-10T11:35:13.226Z,6.13
2019-02-10T11:37:42.522Z,7.30
2019-02-10T11:40:13.400Z,9.47
2019-02-10T11:42:42.685Z,8.90
2019-02-10T11:45:14.059Z,8.43
2019-02-10T11:47:43.367Z,10.60
2019-02-10T11:50:13.782Z,6.37
2019-02-10T11:52:43.256Z,8.40
2019-02-10T11:55:12.773Z,8.37
2019-02-10T11:57:42.071Z,7.73
2019-02-10T12:00:16.611Z,8.37
2019-02-10T12:02:45.930Z,6.07
2019-02-10T12:05:34.626Z,4.50
2019-02-10T12:08:03.904Z,3.80
2019-02-10T12:10:33.165Z,5.43
2019-02-10T12:13:02.438Z,3.50
2019-02-10T12:15:31.729Z,3.97
2019-02-10T12:18:01.003Z,4.10
2019-02-10T12:20:30.268Z,4.47
2019-02-10T12:22:59.536Z,3.17
2019-02-10T12:25:28.927Z,2.00
2019-02-10T12:27:58.202Z,3.07
2019-02-10T12:30:28.132Z,2.37
2019-02-10T12:32:57.491Z,1.70
2019-02-10T12:35:26.771Z,2.93
2019-02-10T12:37:56.073Z,2.00
2019-02-10T12:40:25.462Z,1.43
2019-02-10T12:42:54.750Z,1.30
2019-02-10T12:45:24.034Z,1.90
2019-02-10T12:47:53.344Z,1.00
2019-02-10T12:50:22.613Z,1.40
2019-02-10T12:52:51.964Z,1.10
2019-02-10T12:55:21.242Z,1.30
2019-02-10T12:57:50.814Z,2.57
2019-02-10T13:00:20.564Z,2.00
2019-02-10T13:02:49.837Z,1.77
2019-02-10T13:05:20.071Z,1.20
2019-02-10T13:07:49.344Z,1.03
2019-02-10T13:10:18.845Z,1.20
2019-02-10T13:12:48.123Z,1.70
2019-02-10T13:15:17.397Z,1.27
2019-02-10T13:17:46.684Z,3.37
2019-02-10T13:20:16.933Z,3.83
2019-02-10T13:22:46.222Z,3.00
2019-02-10T13:25:15.473Z,7.07
2019-02-10T13:27:44.797Z,1.90
2019-02-10T13:30:17.945Z,2.30
2019-02-10T13:32:47.229Z,1.47
2019-02-10T13:35:16.551Z,1.20
2019-02-10T13:37:45.853Z,2.93
2019-02-10T13:40:18.317Z,3.80
2019-02-10T13:42:47.649Z,6.13
2019-02-10T13:45:16.905Z,4.40
2019-02-10T13:47:46.195Z,4.13
2019-02-10T13:50:17.653Z,15.87
2019-02-10T13:52:49.388Z,3.30
2019-02-10T13:55:18.902Z,5.63
2019-02-10T13:57:48.310Z,3.47
2019-02-10T14:00:22.815Z,2.93
2019-02-10T14:02:52.749Z,1.93
2019-02-10T14:05:22.052Z,2.90
2019-02-10T14:07:51.590Z,3.20
2019-02-10T14:10:25.697Z,4.60
2019-02-10T14:12:59.564Z,7.47
2019-02-10T14:15:28.904Z,7.33
2019-02-10T14:17:58.234Z,4.67
2019-02-10T14:20:27.490Z,4.00
2019-02-10T14:22:56.824Z,23.40
2019-02-10T14:25:26.110Z,29.93
2019-02-10T14:27:55.382Z,20.63
2019-02-10T14:30:24.950Z,24.40
2019-02-10T14:32:54.319Z,18.07
2019-02-10T14:35:23.604Z,16.80
2019-02-10T14:37:52.933Z,12.58
2019-02-10T14:40:22.253Z,19.70
2019-02-10T14:42:51.525Z,8.13
2019-02-10T14:45:20.800Z,8.60
2019-02-10T14:47:50.077Z,10.97
2019-02-10T14:50:19.373Z,8.33
2019-02-10T14:52:48.634Z,10.30
2019-02-10T14:55:17.937Z,10.23
2019-02-10T14:57:47.210Z,10.00
2019-02-10T15:00:17.052Z,14.47
2019-02-10T15:02:46.506Z,13.90
2019-02-10T15:05:15.766Z,6.10
2019-02-10T15:07:45.105Z,44.77
2019-02-10T15:10:16.913Z,17.83
2019-02-10T15:12:46.255Z,20.73
2019-02-10T15:15:15.554Z,29.13
2019-02-10T15:17:44.817Z,14.03
2019-02-10T15:20:14.354Z,22.90
2019-02-10T15:22:43.620Z,21.07
2019-02-10T15:25:13.970Z,3.80
2019-02-10T15:27:43.253Z,4.10
2019-02-10T15:30:14.076Z,6.10
2019-02-10T15:32:43.350Z,7.00
2019-02-10T15:35:12.693Z,9.40
2019-02-10T15:37:42.932Z,4.07
2019-02-10T15:40:13.149Z,16.47
2019-02-10T15:42:42.412Z,4.97
2019-02-10T15:45:15.423Z,12.23
2019-02-10T15:47:44.786Z,7.90
2019-02-10T15:50:14.617Z,8.70
2019-02-10T15:52:43.888Z,2.43
2019-02-10T15:55:13.926Z,1.50
2019-02-10T15:57:43.191Z,2.50
2019-02-10T16:00:15.778Z,7.17
2019-02-10T16:02:45.029Z,3.37
2019-02-10T16:05:14.311Z,1.40
2019-02-10T16:07:43.562Z,2.60
2019-02-10T16:10:12.869Z,2.37
2019-02-10T16:12:42.229Z,1.93
2019-02-10T16:15:13.053Z,0.40
2019-02-10T16:17:42.424Z,0.73
2019-02-10T16:20:14.536Z,2.83
2019-02-10T16:22:43.906Z,23.83
2019-02-10T16:25:13.162Z,3.57
2019-02-10T16:27:42.435Z,1.63
2019-02-10T16:30:14.133Z,5.97
2019-02-10T16:32:49.658Z,2.77
2019-02-10T16:35:15.334Z,2.90
2019-02-10T16:37:44.713Z,2.87
2019-02-10T16:40:22.210Z,2.80
2019-02-10T16:42:51.638Z,0.87
2019-02-10T16:45:20.958Z,3.90
2019-02-10T16:47:50.234Z,2.50
2019-02-10T16:50:19.497Z,9.63
2019-02-10T16:52:48.884Z,4.57
2019-02-10T16:55:21.346Z,16.70
2019-02-10T16:57:50.835Z,19.27
2019-02-10T17:00:20.169Z,18.20
2019-02-10T17:02:49.442Z,17.83
2019-02-10T17:05:18.717Z,35.07
2019-02-10T17:07:47.998Z,21.77
2019-02-10T17:10:19.478Z,37.53
2019-02-10T17:12:48.758Z,52.50
2019-02-10T17:15:18.043Z,14.63
2019-02-10T17:17:47.330Z,8.67
2019-02-10T17:20:16.738Z,15.90
2019-02-10T17:22:46.016Z,8.03
2019-02-10T17:25:20.562Z,12.27
2019-02-10T17:27:49.855Z,8.87
2019-02-10T17:30:19.129Z,16.73
2019-02-10T17:32:48.422Z,10.70
2019-02-10T17:35:17.689Z,14.00
2019-02-10T17:37:46.960Z,10.77
2019-02-10T17:40:19.320Z,7.73
2019-02-10T17:42:48.613Z,9.43
2019-02-10T17:45:17.860Z,8.73
2019-02-10T17:47:47.133Z,11.70
2019-02-10T17:50:17.525Z,5.53
2019-02-10T17:52:46.855Z,11.23
2019-02-10T17:55:16.111Z,9.47
2019-02-10T17:57:45.386Z,8.40
2019-02-10T18:00:16.664Z,9.97
2019-02-10T18:02:45.963Z,6.47
2019-02-10T18:05:15.295Z,7.83
2019-02-10T18:07:44.562Z,5.87
2019-02-10T18:10:14.972Z,5.17
2019-02-10T18:12:44.232Z,2.93
2019-02-10T18:15:15.213Z,7.27
2019-02-10T18:17:46.155Z,4.27
2019-02-10T18:20:19.886Z,4.53
2019-02-10T18:22:53.650Z,5.97
2019-02-10T18:25:27.454Z,3.93
2019-02-10T18:28:27.450Z,3.37
2019-02-10T18:30:58.365Z,4.20
2019-02-10T18:33:35.134Z,8.00
2019-02-10T18:36:07.122Z,1.73
2019-02-10T18:38:53.288Z,1.30
2019-02-10T18:41:24.305Z,0.80
2019-02-10T18:44:01.502Z,0.50
2019-02-10T18:46:41.782Z,0.90
2019-02-10T18:49:21.810Z,1.97
2019-02-10T18:52:09.021Z,0.90
2019-02-10T18:54:52.539Z,0.70
2019-02-10T18:57:30.315Z,0.90
2019-02-10T19:00:06.936Z,0.73
2019-02-10T19:02:56.071Z,1.00
2019-02-10T19:05:43.462Z,0.70
2019-02-10T19:08:20.234Z,0.97
2019-02-10T19:11:00.171Z,0.83
2019-02-10T19:13:33.828Z,0.70
2019-02-10T19:16:07.430Z,0.83
2019-02-10T19:19:01.549Z,0.90
2019-02-10T19:21:47.636Z,0.80
2019-02-10T19:24:33.671Z,1.40
2019-02-10T19:30:00.350Z,1.20
2019-02-10T19:32:40.263Z,1.70
2019-02-10T19:35:11.181Z,2.10
2019-02-10T19:37:58.264Z,1.63
2019-02-10T19:40:29.221Z,1.10
2019-02-10T19:43:02.739Z,0.80
2019-02-10T19:45:33.779Z,0.83
2019-02-10T19:48:10.784Z,0.97
2019-02-10T19:50:41.709Z,0.90
2019-02-10T19:53:13.750Z,0.97
2019-02-10T19:55:44.703Z,15.37
2019-02-10T19:58:24.705Z,13.93
2019-02-10T20:00:55.696Z,2.40
2019-02-10T20:03:43.300Z,2.20
2019-02-10T20:06:30.404Z,1.60
2019-02-10T20:09:07.087Z,13.03
2019-02-10T20:11:44.831Z,2.07
2019-02-10T20:14:15.747Z,4.63
2019-02-10T20:16:55.884Z,1.50
2019-02-10T20:19:32.854Z,2.60
2019-02-10T20:22:09.334Z,9.03
2019-02-10T20:24:40.271Z,27.57
2019-02-10T20:27:17.229Z,24.10
2019-02-10T20:29:50.865Z,32.97
2019-02-10T20:32:27.531Z,15.63
2019-02-10T20:35:01.589Z,21.93
2019-02-10T20:37:42.395Z,21.83
2019-02-10T20:40:15.914Z,22.30
2019-02-10T20:42:49.793Z,9.83
2019-02-10T20:45:26.482Z,20.90
2019-02-10T20:47:58.403Z,13.17
2019-02-10T20:50:29.376Z,14.43
2019-02-10T20:53:16.562Z,6.10
2019-02-10T20:55:47.550Z,15.57
2019-02-10T20:58:27.503Z,32.43
2019-02-10T21:01:07.034Z,10.50
2019-02-10T21:03:49.920Z,24.77
2019-02-10T21:06:37.108Z,25.57
2019-02-10T21:09:10.911Z,21.30
2019-02-10T21:11:44.864Z,17.83
2019-02-10T21:14:15.844Z,12.87
2019-02-10T21:16:55.810Z,17.30
2019-02-10T21:19:41.699Z,12.90
2019-02-10T21:22:21.783Z,14.77
2019-02-10T21:25:03.308Z,9.30
2019-02-10T21:27:34.387Z,10.37
2019-02-10T21:30:06.167Z,9.67
2019-02-10T21:32:43.134Z,8.77
2019-02-10T21:35:14.050Z,5.90
2019-02-10T21:37:44.989Z,59.93
2019-02-10T21:40:15.942Z,53.83
2019-02-10T21:42:49.583Z,25.13
2019-02-10T21:45:37.039Z,21.33
2019-02-10T21:48:07.980Z,11.60
2019-02-10T21:50:37.266Z,6.20
2019-02-10T21:53:06.565Z,9.40
2019-02-10T21:55:35.842Z,10.53
2019-02-10T21:58:05.152Z,3.70
2019-02-10T22:00:34.417Z,4.37
2019-02-10T22:03:03.711Z,6.53
2019-02-10T22:05:32.975Z,4.43
2019-02-10T22:08:02.279Z,2.03
2019-02-10T22:10:31.628Z,2.60
2019-02-10T22:13:16.148Z,1.20
2019-02-10T22:15:45.470Z,1.70
2019-02-10T22:18:14.743Z,3.60
2019-02-10T22:20:44.026Z,1.30
2019-02-10T22:23:13.314Z,0.70
2019-02-10T22:25:42.579Z,1.10
2019-02-10T22:28:11.866Z,1.30
2019-02-10T22:30:41.138Z,1.37
2019-02-10T22:33:10.643Z,1.03
2019-02-10T22:35:39.945Z,0.80
2019-02-10T22:38:09.222Z,0.70
2019-02-10T22:40:38.585Z,0.60
2019-02-10T22:43:07.850Z,0.70
2019-02-10T22:45:37.136Z,0.80
2019-02-10T22:48:06.403Z,0.80
2019-02-10T22:50:35.690Z,0.80
2019-02-10T22:53:04.958Z,0.60
2019-02-10T22:55:34.251Z,0.70
2019-02-10T22:58:03.542Z,0.70
2019-02-10T23:00:40.211Z,0.83
2019-02-10T23:03:09.499Z,0.70
2019-02-10T23:05:38.796Z,0.90
2019-02-10T23:08:09.138Z,0.70
2019-02-10T23:10:38.426Z,0.70
2019-02-10T23:13:07.720Z,0.70
2019-02-10T23:15:37.004Z,0.80
2019-02-10T23:18:06.289Z,0.90
2019-02-10T23:20:36.052Z,0.70
2019-02-10T23:23:05.350Z,0.87
2019-02-10T23:25:34.639Z,0.70
2019-02-10T23:28:03.918Z,0.63
2019-02-10T23:30:34.311Z,0.90
2019-02-10T23:33:03.587Z,0.63
2019-02-10T23:35:32.877Z,0.80
2019-02-10T23:38:02.150Z,0.90
2019-02-10T23:40:31.449Z,13.60
2019-02-10T23:43:02.158Z,5.27
2019-02-10T23:45:31.915Z,2.60
2019-02-10T23:48:01.189Z,2.13
2019-02-10T23:50:30.480Z,3.70
2019-02-10T23:53:00.824Z,2.63
2019-02-10T23:55:31.186Z,4.67
2019-02-10T23:58:00.474Z,5.00
